Time;durP1;ratioP1;P1;durP2;ratioP2;P2;SDS_P1;SDS_P2;PMS_P1;PMS_P2;Temp;Humidity;BMP_temperature;BMP_pressure;BME280_temperature;BME280_humidity;BME280_pressure;Samples;Min_cycle;Max_cycle;Signal;HPM_P1;HPM_P2
2023/08/10 00:01:30;;;;;;;7.75;3.40;;;;;;;-148.88;100.00;-17125.47;5032129;28;20346;-74
2023/08/10 00:03:55;;;;;;;8.13;3.30;;;;;;;-148.88;100.00;-17125.47;5031335;28;20034;-74
2023/08/10 00:06:21;;;;;;;6.28;3.13;;;;;;;-148.88;100.00;-17125.47;5032588;28;20480;-74
2023/08/10 00:08:46;;;;;;;9.10;3.10;;;;;;;-148.88;100.00;-17125.47;5032633;28;20087;-74
2023/08/10 00:11:12;;;;;;;6.00;3.30;;;;;;;-148.88;100.00;-17125.47;5032792;28;20480;-75
2023/08/10 00:13:37;;;;;;;5.22;2.75;;;;;;;-148.88;100.00;-17125.47;5031214;28;20443;-74
2023/08/10 00:16:03;;;;;;;6.78;3.00;;;;;;;-148.88;100.00;-17125.47;5031198;28;20022;-74
2023/08/10 00:18:29;;;;;;;8.77;3.15;;;;;;;-148.88;100.00;-17125.47;5032296;28;20072;-74
2023/08/10 00:20:54;;;;;;;6.40;3.25;;;;;;;-148.88;100.00;-17125.47;5031173;28;20032;-75
2023/08/10 00:23:19;;;;;;;8.40;3.17;;;;;;;-148.88;100.00;-17125.47;5032445;28;20181;-74
2023/08/10 00:25:45;;;;;;;6.50;3.15;;;;;;;-148.88;100.00;-17125.47;5031151;28;20524;-74
2023/08/10 00:28:10;;;;;;;6.88;3.35;;;;;;;-148.88;100.00;-17125.47;5032372;28;20445;-74
2023/08/10 00:30:35;;;;;;;7.20;3.22;;;;;;;-148.88;100.00;-17125.47;5032412;28;20439;-74
2023/08/10 00:33:01;;;;;;;9.18;3.50;;;;;;;-148.88;100.00;-17125.47;5031153;28;20448;-74
2023/08/10 00:35:26;;;;;;;4.95;2.95;;;;;;;-148.88;100.00;-17125.47;5032426;28;20032;-74
2023/08/10 00:37:51;;;;;;;7.75;3.65;;;;;;;-148.88;100.00;-17125.47;5032319;28;20105;-74
2023/08/10 00:40:17;;;;;;;8.48;3.45;;;;;;;-148.88;100.00;-17125.47;5032495;28;20104;-74
2023/08/10 00:42:42;;;;;;;9.30;3.55;;;;;;;-148.88;100.00;-17125.47;5032490;28;20087;-74
2023/08/10 00:45:09;;;;;;;6.43;3.38;;;;;;;-148.88;100.00;-17125.47;5032484;28;20033;-74
2023/08/10 00:47:35;;;;;;;7.63;3.15;;;;;;;-148.88;100.00;-17125.47;5032689;28;20017;-74
2023/08/10 00:50:02;;;;;;;6.57;3.20;;;;;;;-148.88;100.00;-17125.47;5030953;28;20518;-74
2023/08/10 00:52:28;;;;;;;5.75;3.22;;;;;;;-148.88;100.00;-17125.47;5030941;28;20510;-74
2023/08/10 00:54:54;;;;;;;8.45;3.40;;;;;;;-148.88;100.00;-17125.47;5032257;28;20034;-74
2023/08/10 00:57:20;;;;;;;10.25;3.42;;;;;;;-148.88;100.00;-17125.47;5030888;28;20038;-74
2023/08/10 00:59:47;;;;;;;10.32;3.58;;;;;;;-148.88;100.00;-17125.47;5032206;28;20494;-74
2023/08/10 01:02:12;;;;;;;6.32;3.08;;;;;;;-148.88;100.00;-17125.47;5032371;28;20392;-75
2023/08/10 01:04:39;;;;;;;6.75;3.00;;;;;;;-148.88;100.00;-17125.47;5032166;28;20503;-75
2023/08/10 01:07:22;;;;;;;8.48;3.60;;;;;;;-148.88;100.00;-17125.47;5032108;28;20033;-74
2023/08/10 01:09:57;;;;;;;9.17;3.43;;;;;;;-148.88;100.00;-17125.47;5030847;28;20091;-74
2023/08/10 01:12:41;;;;;;;8.93;3.47;;;;;;;-148.88;100.00;-17125.47;5032302;28;20025;-74
2023/08/10 01:15:09;;;;;;;;;;;;;;;-148.88;100.00;-17125.47;5036340;28;20028;-74
2023/08/10 01:17:40;;;;;;;7.88;3.08;;;;;;;-148.88;100.00;-17125.47;5035473;28;19960;-74
2023/08/10 01:20:08;;;;;;;6.95;3.33;;;;;;;-148.88;100.00;-17125.47;5034371;28;20021;-74
2023/08/10 01:22:48;;;;;;;5.60;2.97;;;;;;;-148.88;100.00;-17125.47;5035766;28;20476;-75
2023/08/10 01:25:16;;;;;;;7.25;3.63;;;;;;;-148.88;100.00;-17125.47;5034360;28;20048;-74
2023/08/10 01:27:42;;;;;;;5.40;3.47;;;;;;;-148.88;100.00;-17125.47;5035482;28;20025;-74
2023/08/10 01:30:08;;;;;;;8.75;3.42;;;;;;;-148.88;100.00;-17125.47;5035334;28;20029;-74
2023/08/10 01:32:34;;;;;;;7.32;3.10;;;;;;;-148.88;100.00;-17125.47;5034318;28;20036;-75
2023/08/10 01:35:00;;;;;;;7.28;3.45;;;;;;;-148.88;100.00;-17125.47;5035322;28;20037;-74
2023/08/10 01:37:26;;;;;;;7.25;3.72;;;;;;;-148.88;100.00;-17125.47;5035305;28;20083;-74
2023/08/10 01:39:52;;;;;;;12.15;3.63;;;;;;;-148.88;100.00;-17125.47;5033967;28;20033;-74
2023/08/10 01:42:17;;;;;;;6.30;3.33;;;;;;;-148.88;100.00;-17125.47;5035517;28;20024;-74
2023/08/10 01:44:43;;;;;;;10.27;3.83;;;;;;;-148.88;100.00;-17125.47;5035149;28;20031;-74
2023/08/10 01:47:23;;;;;;;7.40;3.85;;;;;;;-148.88;100.00;-17125.47;5034964;28;20025;-74
2023/08/10 01:49:53;;;;;;;5.47;3.50;;;;;;;-148.88;100.00;-17125.47;5033691;28;20029;-74
2023/08/10 01:52:22;;;;;;;7.18;3.33;;;;;;;-148.88;100.00;-17125.47;5033682;28;20021;-74
2023/08/10 01:54:48;;;;;;;6.90;3.30;;;;;;;-148.88;100.00;-17125.47;5034953;28;20528;-75
2023/08/10 01:57:13;;;;;;;6.80;3.70;;;;;;;-148.88;100.00;-17125.47;5034949;28;20056;-74
2023/08/10 01:59:39;;;;;;;8.38;3.85;;;;;;;-148.88;100.00;-17125.47;5035103;28;20431;-74
2023/08/10 02:02:04;;;;;;;5.93;3.28;;;;;;;-148.88;100.00;-17125.47;5034803;28;20057;-74
2023/08/10 02:04:30;;;;;;;8.98;3.75;;;;;;;-148.88;100.00;-17125.47;5034727;28;20036;-74
2023/08/10 02:06:55;;;;;;;6.82;3.72;;;;;;;-148.88;100.00;-17125.47;5034878;28;20041;-74
2023/08/10 02:09:20;;;;;;;5.78;3.40;;;;;;;-148.88;100.00;-17125.47;5034591;28;20484;-74
2023/08/10 02:11:46;;;;;;;9.15;3.80;;;;;;;-148.88;100.00;-17125.47;5034925;28;20384;-74
2023/08/10 02:14:11;;;;;;;7.72;3.75;;;;;;;-148.88;100.00;-17125.47;5034638;28;20021;-74
2023/08/10 02:16:36;;;;;;;7.20;3.28;;;;;;;-148.88;100.00;-17125.47;5034597;28;20022;-74
2023/08/10 02:19:02;;;;;;;7.00;3.78;;;;;;;-148.88;100.00;-17125.47;5034501;28;20025;-74
2023/08/10 02:21:27;;;;;;;9.02;3.83;;;;;;;-148.88;100.00;-17125.47;5034588;28;20020;-74
2023/08/10 02:23:53;;;;;;;11.00;4.00;;;;;;;-148.88;100.00;-17125.47;5034024;28;20118;-74
2023/08/10 02:26:18;;;;;;;9.88;3.80;;;;;;;-148.88;100.00;-17125.47;5034515;28;20024;-74
2023/08/10 02:28:43;;;;;;;7.07;3.72;;;;;;;-148.88;100.00;-17125.47;5034597;28;20400;-74
2023/08/10 02:31:09;;;;;;;10.13;3.70;;;;;;;-148.88;100.00;-17125.47;5034429;28;20488;-74
2023/08/10 02:33:34;;;;;;;9.07;3.90;;;;;;;-148.88;100.00;-17125.47;5034774;28;20100;-74
2023/08/10 02:36:00;;;;;;;9.38;3.95;;;;;;;-148.88;100.00;-17125.47;5034714;28;20369;-74
2023/08/10 02:38:25;;;;;;;6.35;3.58;;;;;;;-148.88;100.00;-17125.47;5034527;28;20025;-74
2023/08/10 02:40:50;;;;;;;6.63;3.90;;;;;;;-148.88;100.00;-17125.47;5034295;28;20025;-74
2023/08/10 02:43:16;;;;;;;8.70;3.95;;;;;;;-148.88;100.00;-17125.47;5034168;28;20472;-74
2023/08/10 02:45:41;;;;;;;7.82;3.80;;;;;;;-148.88;100.00;-17125.47;5034119;28;20021;-74
2023/08/10 02:48:06;;;;;;;13.05;4.13;;;;;;;-148.88;100.00;-17125.47;5033981;28;20053;-74
2023/08/10 02:50:32;;;;;;;7.97;4.20;;;;;;;-148.88;100.00;-17125.47;5033888;28;20021;-74
2023/08/10 02:52:57;;;;;;;8.85;3.92;;;;;;;-148.88;100.00;-17125.47;5034174;28;20026;-74
2023/08/10 02:55:23;;;;;;;11.25;4.68;;;;;;;-148.88;100.00;-17125.47;5032540;28;20025;-74
2023/08/10 02:57:48;;;;;;;7.63;3.65;;;;;;;-148.88;100.00;-17125.47;5034056;28;20029;-74
2023/08/10 03:00:14;;;;;;;8.40;4.28;;;;;;;-148.88;100.00;-17125.47;5033829;28;20464;-75
2023/08/10 03:02:40;;;;;;;9.00;4.03;;;;;;;-148.88;100.00;-17125.47;5032480;28;20083;-74
2023/08/10 03:05:06;;;;;;;10.02;4.18;;;;;;;-148.88;100.00;-17125.47;5033691;28;20029;-74
2023/08/10 03:07:31;;;;;;;8.88;4.13;;;;;;;-148.88;100.00;-17125.47;5033550;28;20036;-75
2023/08/10 03:09:57;;;;;;;10.65;4.13;;;;;;;-148.88;100.00;-17125.47;5033507;28;20052;-74
2023/08/10 03:12:22;;;;;;;6.95;3.55;;;;;;;-148.88;100.00;-17125.47;5033661;28;20462;-74
2023/08/10 03:14:50;;;;;;;8.00;4.10;;;;;;;-148.88;100.00;-17125.47;5033453;28;20029;-74
2023/08/10 03:17:16;;;;;;;8.82;4.47;;;;;;;-148.88;100.00;-17125.47;5043677;22;20033;-84
2023/08/10 03:19:42;;;;;;;11.10;4.40;;;;;;;-148.88;100.00;-17125.47;5052351;28;20541;-84
2023/08/10 03:22:07;;;;;;;12.18;4.07;;;;;;;-148.88;100.00;-17125.47;5052341;28;20119;-85
2023/08/10 03:24:35;;;;;;;6.95;3.85;;;;;;;-148.88;100.00;-17125.47;5052285;28;20111;-85
2023/08/10 03:27:01;;;;;;;9.52;4.40;;;;;;;-148.88;100.00;-17125.47;5052019;28;20028;-85
2023/08/10 03:29:26;;;;;;;11.20;4.13;;;;;;;-148.88;100.00;-17125.47;5052241;28;20098;-85
2023/08/10 03:31:51;;;;;;;9.18;4.10;;;;;;;-148.88;100.00;-17125.47;5052113;28;20029;-84
2023/08/10 03:34:17;;;;;;;9.80;4.28;;;;;;;-148.88;100.00;-17125.47;5053408;28;20480;-86
2023/08/10 03:36:42;;;;;;;9.50;3.95;;;;;;;-148.88;100.00;-17125.47;5052724;28;20513;-86
2023/08/10 03:39:07;;;;;;;7.03;3.97;;;;;;;-148.88;100.00;-17125.47;5054369;28;20024;-87
2023/08/10 03:41:33;;;;;;;9.07;4.53;;;;;;;-148.88;100.00;-17125.47;5052482;28;20021;-85
2023/08/10 03:43:58;;;;;;;11.88;4.85;;;;;;;-148.88;100.00;-17125.47;5053267;28;20123;-87
2023/08/10 03:46:23;;;;;;;8.57;4.28;;;;;;;-148.88;100.00;-17125.47;5051979;28;20024;-86
2023/08/10 03:48:49;;;;;;;8.50;4.00;;;;;;;-148.88;100.00;-17125.47;5052386;28;20120;-86
2023/08/10 03:51:14;;;;;;;7.90;4.97;;;;;;;-148.88;100.00;-17125.47;5051966;28;20036;-87
2023/08/10 03:53:39;;;;;;;9.77;4.63;;;;;;;-148.88;100.00;-17125.47;5052203;28;20051;-86
2023/08/10 03:56:05;;;;;;;9.95;5.00;;;;;;;-148.88;100.00;-17125.47;5051670;28;20430;-86
2023/08/10 03:58:30;;;;;;;7.63;4.32;;;;;;;-148.88;100.00;-17125.47;5051603;28;20063;-86
2023/08/10 04:00:56;;;;;;;8.80;4.15;;;;;;;-148.88;100.00;-17125.47;5051759;28;20017;-86
2023/08/10 04:03:21;;;;;;;12.52;4.85;;;;;;;-148.88;100.00;-17125.47;5052985;28;20096;-86
2023/08/10 04:05:46;;;;;;;9.88;4.40;;;;;;;-148.88;100.00;-17125.47;5052030;28;20457;-86
2023/08/10 04:08:12;;;;;;;10.95;4.80;;;;;;;-148.88;100.00;-17125.47;5051636;28;20369;-86
2023/08/10 04:10:37;;;;;;;10.73;4.78;;;;;;;-148.88;100.00;-17125.47;5051482;28;20051;-84
2023/08/10 04:13:03;;;;;;;10.55;4.75;;;;;;;-148.88;100.00;-17125.47;5053030;28;20103;-86
2023/08/10 04:15:32;;;;;;;8.77;4.97;;;;;;;-148.88;100.00;-17125.47;5051712;28;20029;-86
2023/08/10 04:17:57;;;;;;;11.60;5.03;;;;;;;-148.88;100.00;-17125.47;5051845;28;20028;-86
2023/08/10 04:20:23;;;;;;;8.70;4.70;;;;;;;-148.88;100.00;-17125.47;5051522;28;20020;-86
2023/08/10 04:22:48;;;;;;;9.70;4.30;;;;;;;-148.88;100.00;-17125.47;5051625;28;20055;-86
2023/08/10 04:25:14;;;;;;;10.25;5.00;;;;;;;-148.88;100.00;-17125.47;5053829;28;20029;-86
2023/08/10 04:27:40;;;;;;;8.10;4.60;;;;;;;-148.88;100.00;-17125.47;5051950;28;20021;-87
2023/08/10 04:30:08;;;;;;;7.10;4.55;;;;;;;-148.88;100.00;-17125.47;5051601;28;20029;-86
2023/08/10 04:32:35;;;;;;;9.25;4.45;;;;;;;-148.88;100.00;-17125.47;5051540;28;20403;-86
2023/08/10 04:35:02;;;;;;;7.22;4.57;;;;;;;-148.88;100.00;-17125.47;5052760;28;20057;-86
2023/08/10 04:37:27;;;;;;;9.07;4.70;;;;;;;-148.88;100.00;-17125.47;5051459;28;20025;-86
2023/08/10 04:39:52;;;;;;;10.70;4.65;;;;;;;-148.88;100.00;-17125.47;5051521;28;20023;-86
2023/08/10 04:42:18;;;;;;;10.50;4.70;;;;;;;-148.88;100.00;-17125.47;5051836;28;20025;-85
2023/08/10 04:44:44;;;;;;;8.02;4.97;;;;;;;-148.88;100.00;-17125.47;5051919;28;20024;-86
2023/08/10 04:47:15;;;;;;;8.85;4.70;;;;;;;-148.88;100.00;-17125.47;5054859;28;20027;-88
2023/08/10 04:49:41;;;;;;;9.35;4.38;;;;;;;-148.88;100.00;-17125.47;5057266;28;20051;-86
2023/08/10 04:52:07;;;;;;;10.57;4.63;;;;;;;-148.88;100.00;-17125.47;5056105;28;20458;-88
2023/08/10 04:54:32;;;;;;;8.38;4.40;;;;;;;-148.88;100.00;-17125.47;5055731;28;20474;-87
2023/08/10 04:56:58;;;;;;;10.13;4.43;;;;;;;-148.88;100.00;-17125.47;5056968;28;20024;-89
2023/08/10 04:59:23;;;;;;;9.88;5.28;;;;;;;-148.88;100.00;-17125.47;5055973;28;20059;-87
2023/08/10 05:01:49;;;;;;;10.70;5.20;;;;;;;-148.88;100.00;-17125.47;5056333;28;20029;-87
2023/08/10 05:04:14;;;;;;;11.90;4.70;;;;;;;-148.88;100.00;-17125.47;5056622;28;20426;-88
2023/08/10 05:06:40;;;;;;;8.52;4.90;;;;;;;-148.88;100.00;-17125.47;5056203;28;20029;-89
2023/08/10 05:09:06;;;;;;;7.82;4.68;;;;;;;-148.88;100.00;-17125.47;5055795;28;20037;-88
2023/08/10 05:11:31;;;;;;;11.60;5.28;;;;;;;-148.88;100.00;-17125.47;5055787;28;20073;-86
2023/08/10 05:13:57;;;;;;;7.82;4.95;;;;;;;-148.88;100.00;-17125.47;5055691;28;20021;-88
2023/08/10 05:16:22;;;;;;;11.98;4.80;;;;;;;-148.88;100.00;-17125.47;5059644;28;20032;-88
2023/08/10 05:18:48;;;;;;;8.65;5.10;;;;;;;-148.88;100.00;-17125.47;5057230;28;20082;-88
2023/08/10 05:21:14;;;;;;;11.80;4.63;;;;;;;-148.88;100.00;-17125.47;5055589;28;20047;-88
2023/08/10 05:23:40;;;;;;;9.88;4.70;;;;;;;-148.88;100.00;-17125.47;5055939;28;20089;-87
2023/08/10 05:26:07;;;;;;;10.10;5.28;;;;;;;-148.88;100.00;-17125.47;5054999;28;20487;-87
2023/08/10 05:28:32;;;;;;;10.85;5.00;;;;;;;-148.88;100.00;-17125.47;5055201;28;20484;-87
2023/08/10 05:30:58;;;;;;;11.95;5.10;;;;;;;-148.88;100.00;-17125.47;5055248;28;20078;-87
2023/08/10 05:33:35;;;;;;;9.70;5.10;;;;;;;-148.88;100.00;-17125.47;5055111;28;20036;-87
2023/08/10 05:36:01;;;;;;;9.93;4.95;;;;;;;-148.88;100.00;-17125.47;5055211;28;20472;-87
2023/08/10 05:38:29;;;;;;;8.93;4.88;;;;;;;-148.88;100.00;-17125.47;5055123;28;20085;-87
2023/08/10 05:40:56;;;;;;;11.98;5.30;;;;;;;-148.88;100.00;-17125.47;5055182;28;20017;-88
2023/08/10 05:43:21;;;;;;;9.05;4.70;;;;;;;-148.88;100.00;-17125.47;5060254;28;20557;-89
2023/08/10 05:45:47;;;;;;;9.15;5.03;;;;;;;-148.88;100.00;-17125.47;5055216;28;20116;-89
2023/08/10 05:48:13;;;;;;;8.77;4.78;;;;;;;-148.88;100.00;-17125.47;5054722;28;20057;-88
2023/08/10 05:50:38;;;;;;;8.75;4.57;;;;;;;-148.88;100.00;-17125.47;5055734;28;20074;-87
2023/08/10 05:53:06;;;;;;;10.27;4.70;;;;;;;-148.88;100.00;-17125.47;5054847;28;20072;-87
2023/08/10 05:55:37;;;;;;;10.95;4.97;;;;;;;-148.88;100.00;-17125.47;5054443;28;20024;-85
2023/08/10 05:58:03;;;;;;;8.48;4.45;;;;;;;-148.88;100.00;-17125.47;5054334;28;20021;-87
2023/08/10 06:00:32;;;;;;;9.00;4.88;;;;;;;-148.88;100.00;-17125.47;5054005;28;20066;-87
2023/08/10 06:02:57;;;;;;;10.82;4.80;;;;;;;-148.88;100.00;-17125.47;5054426;28;20028;-88
2023/08/10 06:05:23;;;;;;;11.32;4.82;;;;;;;-148.88;100.00;-17125.47;5054694;28;20017;-88
2023/08/10 06:07:49;;;;;;;9.68;4.82;;;;;;;-148.88;100.00;-17125.47;5054380;28;20029;-88
2023/08/10 06:10:18;;;;;;;8.88;4.97;;;;;;;-148.88;100.00;-17125.47;5054219;28;20021;-88
2023/08/10 06:12:44;;;;;;;13.35;5.20;;;;;;;-148.88;100.00;-17125.47;5054050;28;20036;-88
2023/08/10 06:15:10;;;;;;;11.77;5.35;;;;;;;-148.88;100.00;-17125.47;5055229;28;20033;-88
2023/08/10 06:17:37;;;;;;;10.23;4.70;;;;;;;-148.88;100.00;-17125.47;5054186;28;20044;-89
2023/08/10 06:20:16;;;;;;;10.95;5.28;;;;;;;-148.88;100.00;-17125.47;5054182;28;20017;-87
2023/08/10 06:22:43;;;;;;;8.43;4.65;;;;;;;-148.88;100.00;-17125.47;5054157;28;20032;-87
2023/08/10 06:25:09;;;;;;;8.63;4.82;;;;;;;-148.88;100.00;-17125.47;5054252;28;20498;-88
2023/08/10 06:27:37;;;;;;;8.10;4.38;;;;;;;-148.88;100.00;-17125.47;5053870;28;20029;-87
2023/08/10 06:30:04;;;;;;;10.32;5.13;;;;;;;-148.88;100.00;-17125.47;5054316;28;20025;-88
2023/08/10 06:32:29;;;;;;;13.38;5.15;;;;;;;-148.88;100.00;-17125.47;5054964;28;20036;-86
2023/08/10 06:34:55;;;;;;;9.23;4.68;;;;;;;-148.88;100.00;-17125.47;5053874;28;20146;-87
2023/08/10 06:37:20;;;;;;;9.27;4.68;;;;;;;-148.88;100.00;-17125.47;5053788;28;20025;-87
2023/08/10 06:39:46;;;;;;;14.90;5.25;;;;;;;-148.88;100.00;-17125.47;5053868;28;20480;-87
2023/08/10 06:42:12;;;;;;;10.52;4.72;;;;;;;-148.88;100.00;-17125.47;5054709;28;20047;-87
2023/08/10 06:44:38;;;;;;;10.57;4.68;;;;;;;-148.88;100.00;-17125.47;5054539;28;20383;-88
2023/08/10 06:47:04;;;;;;;12.60;4.63;;;;;;;-148.88;100.00;-17125.47;5054777;28;20074;-87
2023/08/10 06:49:29;;;;;;;10.73;3.88;;;;;;;-148.88;100.00;-17125.47;5055728;28;20024;-87
2023/08/10 06:51:54;;;;;;;8.07;3.72;;;;;;;-148.88;100.00;-17125.47;5053391;28;20376;-87
2023/08/10 06:54:20;;;;;;;8.30;4.55;;;;;;;-148.88;100.00;-17125.47;5053784;28;20029;-87
2023/08/10 06:56:46;;;;;;;9.85;4.35;;;;;;;-148.88;100.00;-17125.47;5053529;28;20032;-88
2023/08/10 06:59:12;;;;;;;9.65;3.95;;;;;;;-148.88;100.00;-17125.47;5053433;28;20064;-88
2023/08/10 07:01:41;;;;;;;8.45;4.07;;;;;;;-148.88;100.00;-17125.47;5053492;28;20016;-87
2023/08/10 07:04:07;;;;;;;6.10;3.22;;;;;;;-148.88;100.00;-17125.47;5053671;28;20479;-87
2023/08/10 07:06:33;;;;;;;12.50;3.58;;;;;;;-148.88;100.00;-17125.47;5053220;28;20024;-87
2023/08/10 07:08:58;;;;;;;9.50;3.80;;;;;;;-148.88;100.00;-17125.47;5053514;28;20028;-86
2023/08/10 07:11:26;;;;;;;12.55;3.40;;;;;;;-148.88;100.00;-17125.47;5053340;28;20020;-87
2023/08/10 07:13:52;;;;;;;9.40;3.10;;;;;;;-148.88;100.00;-17125.47;5053530;28;20047;-87
2023/08/10 07:16:18;;;;;;;9.55;3.75;;;;;;;-148.88;100.00;-17125.47;5053354;28;20430;-87
2023/08/10 07:18:43;;;;;;;11.88;3.65;;;;;;;-148.88;100.00;-17125.47;5053282;28;20028;-85
2023/08/10 07:21:09;;;;;;;9.70;3.42;;;;;;;-148.88;100.00;-17125.47;5053420;28;20386;-88
2023/08/10 07:23:35;;;;;;;8.18;2.47;;;;;;;-148.88;100.00;-17125.47;5053163;28;20029;-87
2023/08/10 07:26:00;;;;;;;7.13;2.90;;;;;;;-148.88;100.00;-17125.47;5052812;28;20021;-86
2023/08/10 07:28:26;;;;;;;10.20;3.35;;;;;;;-148.88;100.00;-17125.47;5053986;28;20028;-86
2023/08/10 07:30:53;;;;;;;7.80;2.10;;;;;;;-148.88;100.00;-17125.47;5053245;28;20044;-87
2023/08/10 07:33:19;;;;;;;6.65;1.88;;;;;;;-148.88;100.00;-17125.47;5053727;28;20059;-86
2023/08/10 07:35:48;;;;;;;7.05;2.03;;;;;;;-148.88;98.60;-17125.47;5056038;28;20403;-85
2023/08/10 07:38:13;;;;;;;5.22;1.50;;;;;;;-148.88;96.66;-17125.47;5054082;28;20035;-88
2023/08/10 07:40:39;;;;;;;6.25;1.58;;;;;;;-148.88;99.47;-17125.47;5054231;28;20100;-86
2023/08/10 07:43:04;;;;;;;5.07;1.67;;;;;;;-148.88;97.58;-17125.47;5053973;28;20032;-86
2023/08/10 07:45:30;;;;;;;6.45;1.70;;;;;;;-148.88;99.45;-17125.47;5053830;28;20082;-88
2023/08/10 07:47:55;;;;;;;16.45;2.55;;;;;;;-148.88;100.00;-17125.47;5056651;28;20024;-87
2023/08/10 07:50:21;;;;;;;6.45;2.10;;;;;;;-148.88;100.00;-17125.47;5053264;28;20112;-85
2023/08/10 07:52:46;;;;;;;5.68;1.50;;;;;;;-148.88;95.06;-17125.47;5052350;28;20404;-89
2023/08/10 07:55:15;;;;;;;5.15;1.45;;;;;;;-148.88;94.63;-17125.47;5052825;28;20025;-88
2023/08/10 07:57:41;;;;;;;11.48;2.15;;;;;;;-148.88;94.72;-17125.47;5052441;28;20028;-87
2023/08/10 08:00:08;;;;;;;4.68;1.60;;;;;;;-148.88;94.10;-17125.47;5053258;28;20356;-87
2023/08/10 08:02:33;;;;;;;4.93;1.25;;;;;;;-148.88;94.39;-17125.47;5052390;28;20024;-87
2023/08/10 08:04:59;;;;;;;4.90;1.67;;;;;;;-148.88;93.84;-17125.47;5052540;28;20028;-85
2023/08/10 08:07:25;;;;;;;5.97;1.60;;;;;;;-148.88;93.53;-17125.47;5052394;28;20098;-87
2023/08/10 08:09:51;;;;;;;7.55;1.73;;;;;;;-148.88;93.85;-17125.47;5053905;28;20419;-87
2023/08/10 08:12:20;;;;;;;6.22;1.58;;;;;;;-148.88;93.13;-17125.47;5052723;28;20079;-87
2023/08/10 08:14:45;;;;;;;5.38;1.50;;;;;;;-148.88;92.11;-17125.47;5052851;28;20028;-87
2023/08/10 08:17:10;;;;;;;9.55;1.73;;;;;;;-148.88;93.51;-17125.47;5053812;28;20029;-87
2023/08/10 08:19:39;;;;;;;4.93;1.63;;;;;;;-148.88;91.04;-17125.47;5052773;28;20016;-86
2023/08/10 08:22:04;;;;;;;4.88;1.35;;;;;;;-148.88;91.82;-17125.47;5053266;28;20082;-87
2023/08/10 08:24:29;;;;;;;5.78;1.58;;;;;;;-148.88;89.98;-17125.47;5052259;28;20028;-88
2023/08/10 08:26:56;;;;;;;4.00;1.58;;;;;;;-148.88;92.41;-17125.47;5051984;28;20059;-87
2023/08/10 08:29:22;;;;;;;7.78;1.70;;;;;;;-148.88;89.24;-17125.47;5052160;28;20107;-87
2023/08/10 08:31:51;;;;;;;4.30;1.20;;;;;;;-148.88;85.29;-17125.47;5052247;28;20033;-87
2023/08/10 08:34:17;;;;;;;4.18;1.40;;;;;;;-148.88;85.48;-17125.47;5053153;28;20489;-88
2023/08/10 08:36:42;;;;;;;7.90;1.70;;;;;;;-148.88;87.61;-17125.47;5051960;28;20078;-88
2023/08/10 08:39:10;;;;;;;6.22;1.67;;;;;;;-148.88;91.36;-17125.47;5052138;28;20436;-88
2023/08/10 08:41:37;;;;;;;5.72;1.40;;;;;;;-148.88;94.53;-17125.47;5051881;28;20120;-88
2023/08/10 08:44:08;;;;;;;5.70;1.75;;;;;;;-148.88;94.11;-17125.47;5052163;28;20036;-86
2023/08/10 08:46:37;;;;;;;5.82;1.42;;;;;;;-148.88;92.53;-17125.47;5052120;28;20502;-86
2023/08/10 08:49:04;;;;;;;5.93;1.80;;;;;;;-148.88;86.16;-17125.47;5051942;28;20036;-86
2023/08/10 08:51:30;;;;;;;4.32;1.83;;;;;;;-148.88;85.87;-17125.47;5051852;28;20021;-87
2023/08/10 08:54:00;;;;;;;5.50;1.50;;;;;;;-148.88;86.09;-17125.47;5052888;28;20060;-87
2023/08/10 08:56:26;;;;;;;5.53;1.40;;;;;;;-148.88;82.79;-17125.47;5052028;28;20564;-88
2023/08/10 08:58:51;;;;;;;5.43;1.40;;;;;;;-148.88;79.02;-17125.47;5051594;28;20479;-86
2023/08/10 09:01:19;;;;;;;5.70;1.63;;;;;;;-148.88;75.70;-17125.47;5051773;28;20017;-87
2023/08/10 09:03:48;;;;;;;7.30;1.50;;;;;;;-148.88;74.76;-17125.47;5053316;28;20025;-87
2023/08/10 09:06:14;;;;;;;4.93;1.60;;;;;;;-148.88;74.83;-17125.47;5052034;28;20060;-87
2023/08/10 09:08:41;;;;;;;4.90;1.40;;;;;;;-148.88;76.70;-17125.47;5052652;28;20403;-88
2023/08/10 09:11:09;;;;;;;6.40;1.70;;;;;;;-148.88;79.31;-17125.47;5051571;28;20020;-88
2023/08/10 09:13:34;;;;;;;9.85;1.98;;;;;;;-148.88;82.22;-17125.47;5051690;28;20111;-88
2023/08/10 09:16:04;;;;;;;5.55;1.50;;;;;;;-148.88;83.73;-17125.47;5052765;28;20059;-87
2023/08/10 09:18:39;;;;;;;7.45;1.90;;;;;;;-148.88;82.76;-17125.47;5051641;28;20067;-87
2023/08/10 09:21:18;;;;;;;6.25;1.73;;;;;;;-148.88;80.10;-17125.47;5051510;28;20542;-86
2023/08/10 09:23:45;;;;;;;4.85;1.63;;;;;;;-148.88;82.22;-17125.47;5053150;28;20387;-86
2023/08/10 09:26:12;;;;;;;5.82;1.60;;;;;;;-148.88;83.69;-17125.47;5053078;28;20075;-86
2023/08/10 09:28:38;;;;;;;4.75;2.05;;;;;;;-148.88;81.61;-17125.47;5051376;28;20025;-86
2023/08/10 09:31:10;;;;;;;5.15;1.70;;;;;;;-148.88;80.69;-17125.47;5051322;28;20078;-86
2023/08/10 09:33:37;;;;;;;4.47;1.52;;;;;;;-148.88;78.75;-17125.47;5051565;28;20496;-87
2023/08/10 09:36:06;;;;;;;6.15;1.80;;;;;;;-148.88;79.61;-17125.47;5055097;28;20025;-86
2023/08/10 09:38:32;;;;;;;5.15;1.60;;;;;;;-148.88;78.00;-17125.47;5055983;28;20020;-86
2023/08/10 09:41:07;;;;;;;8.52;1.80;;;;;;;-148.88;77.96;-17125.47;5055383;28;20021;-88
2023/08/10 09:43:32;;;;;;;7.10;1.75;;;;;;;-148.88;79.85;-17125.47;5054833;28;20025;-86
2023/08/10 09:46:06;;;;;;;6.70;1.63;;;;;;;-148.88;82.64;-17125.47;5055033;28;20365;-86
2023/08/10 09:48:35;;;;;;;;;;;;;;;-148.88;77.88;-17125.47;5055774;28;20028;-85
2023/08/10 09:51:02;;;;;;;10.25;1.33;;;;;;;-148.88;63.05;-17125.47;5063066;28;19908;-87
2023/08/10 09:53:28;;;;;;;5.15;1.40;;;;;;;-148.88;64.49;-17125.47;5057734;28;20373;-88
2023/08/10 09:55:57;;;;;;;3.95;1.60;;;;;;;-148.88;68.91;-17125.47;5056979;28;20113;-90
2023/08/10 09:58:23;;;;;;;4.80;1.50;;;;;;;-148.88;71.49;-17125.47;5063938;28;20029;-89
2023/08/10 10:00:49;;;;;;;3.05;1.20;;;;;;;-148.88;70.47;-17125.47;5056149;28;20021;-89
2023/08/10 10:03:16;;;;;;;4.03;1.60;;;;;;;-148.88;71.90;-17125.47;5054771;28;20110;-88
2023/08/10 10:05:42;;;;;;;4.47;1.55;;;;;;;-148.88;71.20;-17125.47;5055820;28;20498;-88
2023/08/10 10:08:08;;;;;;;3.40;1.30;;;;;;;-148.88;68.78;-17125.47;5054419;28;20029;-87
2023/08/10 10:10:37;;;;;;;6.00;1.77;;;;;;;-148.88;71.15;-17125.47;5054442;28;20028;-86
2023/08/10 10:13:09;;;;;;;6.30;1.98;;;;;;;-148.88;70.33;-17125.47;5054698;28;20528;-87
2023/08/10 10:15:36;;;;;;;4.82;1.75;;;;;;;-148.88;70.80;-17125.47;5054306;28;20025;-87
2023/08/10 10:18:20;;;;;;;6.25;1.65;;;;;;;-148.88;70.22;-17125.47;5054112;28;20025;-90
2023/08/10 10:20:46;;;;;;;4.55;1.40;;;;;;;-148.88;69.48;-17125.47;5054482;28;20017;-88
2023/08/10 10:23:17;;;;;;;6.45;1.88;;;;;;;-148.88;67.74;-17125.47;5054548;28;20024;-90
2023/08/10 10:26:01;;;;;;;4.07;1.70;;;;;;;-148.88;63.85;-17125.47;5055496;28;20029;-88
2023/08/10 10:28:28;;;;;;;4.60;1.70;;;;;;;-148.88;67.52;-17125.47;5054585;28;20035;-87
2023/08/10 10:31:03;;;;;;;5.13;1.35;;;;;;;-148.88;62.39;-17125.47;5054200;28;20392;-86
2023/08/10 10:33:28;;;;;;;6.10;1.50;;;;;;;-148.88;59.93;-17125.47;5053976;28;20025;-88
2023/08/10 10:36:14;;;;;;;3.10;1.30;;;;;;;-148.88;60.63;-17125.47;5055282;28;20031;-89
2023/08/10 10:38:41;;;;;;;4.03;1.50;;;;;;;-148.88;61.38;-17125.47;5055183;28;20033;-88
2023/08/10 10:41:17;;;;;;;4.22;1.50;;;;;;;-148.88;61.01;-17125.47;5055307;28;20028;-89
2023/08/10 10:43:46;;;;;;;2.78;1.20;;;;;;;-148.88;55.79;-17125.47;5054004;28;20021;-89
2023/08/10 10:46:32;;;;;;;3.53;1.50;;;;;;;-148.88;55.84;-17125.47;5053611;28;20017;-88
2023/08/10 10:49:04;;;;;;;5.60;1.27;;;;;;;-148.88;60.03;-17125.47;5047702;28;20037;-89
2023/08/10 10:51:29;;;;;;;5.15;1.48;;;;;;;-148.88;60.49;-17125.47;5055002;28;20021;-89
2023/08/10 10:53:56;;;;;;;5.78;1.45;;;;;;;-148.88;59.96;-17125.47;5053601;28;20021;-89
2023/08/10 10:56:24;;;;;;;3.88;1.55;;;;;;;-148.88;60.36;-17125.47;5054108;28;20028;-89
2023/08/10 10:58:50;;;;;;;3.85;1.25;;;;;;;-148.88;56.27;-17125.47;5055241;28;20079;-88
2023/08/10 11:01:20;;;;;;;4.35;1.38;;;;;;;-148.88;55.00;-17125.47;5055072;28;20106;-89